KSJC/SJC METAR and TAF weather

Enter ICAO airport designator
Station Type Date Time Source
KSJC METAR 2019/04/22 23:53 UTC NOAA

KSJC 222353Z 33011KT 10SM FEW110 27/09 A3000 RMK AO2 SLP157 T02720094 10278 20200 56019


Station Type Date Time Source
KSJC Decoded METAR 2019/04/22 23:53 UTC NOAA

SAN JOSE INTERNATIONAL AIRPORT, CA, United States (KSJC) 37-22N 121-55W 25M
Apr 22, 2019 - 07:53 PM EDT / 2019.04.22 2353 UTC
Wind: from the NNW (330 degrees) at 13 MPH (11 KT):0
Visibility: 10 mile(s):0
Sky conditions: mostly clear
Temperature: 81.0 F (27.2 C)
Dew Point: 48.9 F (9.4 C)
Relative Humidity: 32%
Pressure (altimeter): 30 in. Hg (1015 hPa)
Pressure tendency: 0.06 inches (1.9 hPa) lower than three hours ago
ob: KSJC 222353Z 33011KT 10SM FEW110 27/09 A3000 RMK AO2 SLP157 T02720094 10278 20200 56019
cycle: 0

Station Type Date Time Source
KSJC TAF 2019/04/22 18:36 UTC NOAA

TAF KSJC 221732Z 2218/2318 33007KT P6SM SKC
FM222000 32014KT P6SM FEW250
FM230400 VRB04KT P6SM SKC

Example: see airport list